HomeShort term forecast

Short term forecast

Graphical weather forecast for the next 48 hours for Montreal:
Short term forecast
This weather forecast is automatically refreshed every 3 hours.

Hourly Experimental Forecast for the next 48 hours ®

Overall summary: Rain starting tomorrow morning, continuing until tomorrow evening.

 Date & Hour   Temp   Feel   Baro   Hum   Speed & Bearing   Precipitation   Visibility   Cloud cover   Conditions 
 26/04/2018 - 02:00  11.2°C  11.2°C  1002.5 hPa  94%  6.6 km/h   0.15 mm/h  7.3km  87%  Mostly Cloudy 
 26/04/2018 - 03:00  11.1°C  11.1°C  1001.7 hPa  92%  5.9 km/h   0.27 mm/h  10.9km  92%  Mostly Cloudy 
 26/04/2018 - 04:00  10.8°C  10.8°C  1001.3 hPa  92%  5.7 km/h   0.34 mm/h  6.7km  98%  Overcast 
 26/04/2018 - 05:00  10.2°C  10.2°C  1000.8 hPa  93%  5.6 km/h   0.57 mm/h  7.7km  98%  Overcast 
 26/04/2018 - 06:00  9.8°C  9.3°C  1000.7 hPa  94%  5.9 km/h   0.55 mm/h  7.8km  100%  Overcast 
 26/04/2018 - 07:00  9.6°C  8.9°C  1000.4 hPa  94%  6.7 km/h   1.17 mm/h  8.0km  100%  Light Rain 
 26/04/2018 - 08:00  9.6°C  8.6°C  1000.4 hPa  93%  8.0 km/h   1.65 mm/h  8.4km  100%  Rain 
 26/04/2018 - 09:00  9.5°C  8.2°C  1000.5 hPa  93%  9.4 km/h   1.69 mm/h  10.1km  100%  Rain 
 26/04/2018 - 10:00  9.4°C  7.6°C  1000.8 hPa  94%  12.0 km/h   1.74 mm/h  12.8km  100%  Rain 
 26/04/2018 - 11:00  9.1°C  6.9°C  1001.1 hPa  94%  14.6 km/h   1.72 mm/h  15.0km  100%  Rain 
 26/04/2018 - 12:00  8.8°C  6.3°C  1001.2 hPa  95%  16.0 km/h   1.41 mm/h  15.2km  100%  Rain 
 26/04/2018 - 13:00  8.6°C  6.0°C  1001.3 hPa  96%  16.8 km/h   0.97 mm/h  14.0km  100%  Light Rain 
 26/04/2018 - 14:00  8.4°C  5.7°C  1001.4 hPa  97%  17.5 km/h   1.19 mm/h  12.5km  100%  Light Rain 
 26/04/2018 - 15:00  8.6°C  5.7°C  1001.4 hPa  98%  19.9 km/h   0.97 mm/h  16.1km  100%  Light Rain 
 26/04/2018 - 16:00  9.0°C  6.2°C  1002.0 hPa  98%  20.1 km/h   1.03 mm/h  16.1km  100%  Light Rain 
 26/04/2018 - 17:00  9.7°C  7.0°C  1002.7 hPa  95%  19.8 km/h   0.92 mm/h  16.1km  100%  Light Rain 
 26/04/2018 - 18:00  10.4°C  10.4°C  1003.4 hPa  91%  18.2 km/h   0.52 mm/h  16.1km  91%  Mostly Cloudy 
 26/04/2018 - 19:00  11.1°C  11.1°C  1004.2 hPa  86%  16.3 km/h   0.16 mm/h  16.1km  79%  Mostly Cloudy 
 26/04/2018 - 20:00  11.2°C  11.2°C  1005.1 hPa  84%  15.3 km/h   0.03 mm/h  16.1km  66%  Mostly Cloudy 
 26/04/2018 - 21:00  10.7°C  10.7°C  1006.2 hPa  85%  15.1 km/h   0.01 mm/h  16.1km  49%  Partly Cloudy 
 26/04/2018 - 22:00  10.0°C  7.9°C  1007.3 hPa  87%  15.3 km/h   0.01 mm/h  16.1km  29%  Partly Cloudy 
 26/04/2018 - 23:00  9.3°C  7.0°C  1008.1 hPa  88%  15.1 km/h   0.01 mm/h  16.1km  14%  Clear 
 27/04/2018 - 00:00  8.7°C  6.5°C  1008.5 hPa  87%  13.6 km/h   --  16.1km  11%  Clear 
 27/04/2018 - 01:00  8.1°C  6.1°C  1008.7 hPa  87%  11.6 km/h   --  16.1km  15%  Clear 
 27/04/2018 - 02:00  7.5°C  5.7°C  1008.9 hPa  86%  10.0 km/h   --  16.1km  21%  Clear 
 27/04/2018 - 03:00  6.5°C  4.6°C  1009.1 hPa  89%  9.2 km/h   --  16.1km  30%  Partly Cloudy 
 27/04/2018 - 04:00  5.4°C  3.4°C  1009.3 hPa  92%  8.9 km/h   --  16.1km  42%  Partly Cloudy 
 27/04/2018 - 05:00  4.6°C  2.5°C  1009.6 hPa  94%  8.5 km/h   0.01 mm/h  16.1km  51%  Partly Cloudy 
 27/04/2018 - 06:00  4.6°C  2.7°C  1010.0 hPa  94%  8.1 km/h   0.01 mm/h  16.1km  64%  Mostly Cloudy 
 27/04/2018 - 07:00  5.3°C  3.5°C  1010.5 hPa  91%  7.7 km/h   0.01 mm/h  16.1km  79%  Mostly Cloudy 
 27/04/2018 - 08:00  6.6°C  5.1°C  1010.8 hPa  85%  7.5 km/h   0.01 mm/h  16.1km  92%  Mostly Cloudy 
 27/04/2018 - 09:00  8.1°C  6.9°C  1010.9 hPa  79%  7.5 km/h   0.01 mm/h  16.1km  94%  Overcast 
 27/04/2018 - 10:00  9.9°C  8.9°C  1010.7 hPa  73%  7.7 km/h   0.01 mm/h  16.1km  97%  Overcast 
 27/04/2018 - 11:00  11.1°C  11.1°C  1010.5 hPa  69%  7.9 km/h   --  16.1km  99%  Overcast 
 27/04/2018 - 12:00  11.9°C  11.9°C  1010.0 hPa  67%  8.1 km/h   --  16.1km  99%  Overcast 
 27/04/2018 - 13:00  12.6°C  12.6°C  1009.4 hPa  65%  8.3 km/h   --  16.1km  99%  Overcast 
 27/04/2018 - 14:00  13.0°C  13.0°C  1008.7 hPa  65%  8.8 km/h   --  16.1km  100%  Overcast 
 27/04/2018 - 15:00  13.2°C  13.2°C  1008.0 hPa  67%  9.6 km/h   0.01 mm/h  16.1km  100%  Overcast 
 27/04/2018 - 16:00  13.3°C  13.3°C  1007.3 hPa  70%  10.5 km/h   0.03 mm/h  16.1km  100%  Overcast 
 27/04/2018 - 17:00  13.3°C  13.3°C  1006.8 hPa  73%  11.3 km/h   0.06 mm/h  16.1km  100%  Overcast 
 27/04/2018 - 18:00  13.0°C  13.0°C  1006.5 hPa  76%  12.1 km/h   0.12 mm/h  16.1km  100%  Overcast 
 27/04/2018 - 19:00  12.5°C  12.5°C  1006.4 hPa  79%  12.8 km/h   0.26 mm/h  14.6km  100%  Overcast 
 27/04/2018 - 20:00  11.7°C  11.7°C  1006.2 hPa  84%  13.1 km/h   0.39 mm/h  11.8km  100%  Overcast 
 27/04/2018 - 21:00  10.9°C  10.9°C  1006.1 hPa  88%  12.5 km/h   0.34 mm/h  14.7km  100%  Overcast 
 27/04/2018 - 22:00  10.2°C  10.2°C  1005.8 hPa  92%  11.4 km/h   0.25 mm/h  16.1km  99%  Overcast 
 27/04/2018 - 23:00  9.7°C  8.3°C  1005.6 hPa  94%  10.2 km/h   0.22 mm/h  16.1km  98%  Overcast 
 28/04/2018 - 00:00  9.6°C  8.4°C  1005.2 hPa  94%  8.6 km/h   0.26 mm/h  16.1km  92%  Mostly Cloudy 
 28/04/2018 - 01:00  9.5°C  8.7°C  1004.9 hPa  93%  6.7 km/h   0.34 mm/h  11.7km  84%  Mostly Cloudy 
Test

 

Past weather and reports

Past weatherFind in this section the past weather conditions, weather archive, graphics, reports and statistics.

Current conditions

Current weather condition for MontrealAll you need to know about the current weather conditions for Montreal. Weather data is updated every 10 minutes.

Weather forecast

Current Montreal weatherSince 2004, celinium.com website has provided accurate weather forecast for Montreal's island.